Time;durP1;ratioP1;P1;durP2;ratioP2;P2;SDS_P1;SDS_P2;PMS_P1;PMS_P2;Temp;Humidity;BMP_temperature;BMP_pressure;BME280_temperature;BME280_humidity;BME280_pressure;Samples;Min_cycle;Max_cycle;Signal;HPM_P1;HPM_P2
2022/01/03 00:02:21;;;;;;;;;;;9.50;99.90;;;;;;5092291;28;19915;-73
2022/01/03 00:04:46;;;;;;;;;;;9.30;99.90;;;;;;5073735;28;19912;-71
2022/01/03 00:07:12;;;;;;;;;;;9.30;99.90;;;;;;5092277;28;19914;-73
2022/01/03 00:09:38;;;;;;;;;;;9.40;99.90;;;;;;5092344;28;19952;-73
2022/01/03 00:12:04;;;;;;;;;;;9.40;99.90;;;;;;5074075;28;19908;-73
2022/01/03 00:14:31;;;;;;;;;;;9.40;99.90;;;;;;5091780;28;19916;-73
2022/01/03 00:16:56;;;;;;;;;;;9.40;99.90;;;;;;5087817;28;20293;-73
2022/01/03 00:19:22;;;;;;;;;;;9.50;99.90;;;;;;5089208;28;19916;-73
2022/01/03 00:21:52;;;;;;;;;;;9.30;99.90;;;;;;5092036;28;19909;-73
2022/01/03 00:24:23;;;;;;;;;;;9.30;99.90;;;;;;5091586;28;19908;-73
2022/01/03 00:26:53;;;;;;;;;;;9.40;99.90;;;;;;5092168;28;19915;-73
2022/01/03 00:29:20;;;;;;;;;;;9.70;99.90;;;;;;5092007;28;20002;-73
2022/01/03 00:31:46;;;;;;;;;;;9.50;99.90;;;;;;5091516;28;19931;-73
2022/01/03 00:34:12;;;;;;;;;;;9.50;99.90;;;;;;5091210;28;20393;-73
2022/01/03 00:36:38;;;;;;;;;;;9.70;99.90;;;;;;5091581;28;19908;-73
2022/01/03 00:39:05;;;;;;;;;;;10.10;99.90;;;;;;5092000;28;19915;-73
2022/01/03 00:41:30;;;;;;;;;;;10.10;99.90;;;;;;5073553;28;19908;-73
2022/01/03 00:43:56;;;;;;;;;;;9.80;99.90;;;;;;5091456;28;19962;-73
2022/01/03 00:46:21;;;;;;;;;;;10.00;99.90;;;;;;5092090;28;19991;-72
2022/01/03 00:48:47;;;;;;;;;;;9.90;99.90;;;;;;5091107;28;19974;-73
2022/01/03 00:51:17;;;;;;;;;;;9.90;99.90;;;;;;5091581;28;19912;-73
2022/01/03 00:53:42;;;;;;;;;;;9.80;99.90;;;;;;5091038;28;19943;-73
2022/01/03 00:56:31;;;;;;;;;;;10.00;99.90;;;;;;5091561;28;19947;-73
2022/01/03 00:59:10;;;;;;;;;;;10.10;99.90;;;;;;5080365;28;19908;-73
2022/01/03 01:01:37;;;;;;;;;;;10.10;99.90;;;;;;5091135;28;19908;-73
2022/01/03 01:04:05;;;;;;;;;;;10.00;99.90;;;;;;5091010;28;19912;-73
2022/01/03 01:06:32;;;;;;;;;;;9.90;99.90;;;;;;5091714;28;20322;-73
2022/01/03 01:08:58;;;;;;;;;;;9.80;99.90;;;;;;5091227;28;19916;-72
2022/01/03 01:11:28;;;;;;;;;;;9.80;99.90;;;;;;5091337;28;19991;-73
2022/01/03 01:13:54;;;;;;;;;;;9.60;99.90;;;;;;5091066;28;19926;-73
2022/01/03 01:16:20;;;;;;;;;;;9.50;99.90;;;;;;5091305;28;20037;-73
2022/01/03 01:18:45;;;;;;;;;;;9.40;99.90;;;;;;5090818;28;19952;-73
2022/01/03 01:21:11;;;;;;;;;;;9.50;99.90;;;;;;5091222;28;19908;-73
2022/01/03 01:23:41;;;;;;;;;;;9.50;99.90;;;;;;5089934;28;20212;-71
2022/01/03 01:28:51;;;;;;;;;;;9.50;99.90;;;;;;5090885;28;19973;-73
2022/01/03 01:31:18;;;;;;;;;;;9.20;99.90;;;;;;5091178;28;19944;-72
2022/01/03 01:33:45;;;;;;;;;;;9.40;99.90;;;;;;5090647;28;19908;-73
2022/01/03 01:36:10;;;;;;;;;;;9.30;99.90;;;;;;5091229;28;20062;-73
2022/01/03 01:38:38;;;;;;;;;;;9.20;99.90;;;;;;5090987;28;19912;-73
2022/01/03 01:41:05;;;;;;;;;;;9.30;99.90;;;;;;5090950;28;19923;-73
2022/01/03 01:43:37;;;;;;;;;;;9.30;99.90;;;;;;5091395;28;19912;-72
2022/01/03 01:46:10;;;;;;;;;;;9.10;99.90;;;;;;5095156;28;19962;-73
2022/01/03 01:48:37;;;;;;;;;;;9.10;99.90;;;;;;5094466;28;19958;-73
2022/01/03 01:51:04;;;;;;;;;;;9.20;99.90;;;;;;5095058;28;19912;-73
2022/01/03 01:53:29;;;;;;;;;;;9.30;99.90;;;;;;5094383;28;19908;-73
2022/01/03 01:55:56;;;;;;;;;;;9.10;99.90;;;;;;5094683;28;20571;-72
2022/01/03 01:58:42;;;;;;;;;;;9.10;99.90;;;;;;5095319;28;19915;-73
2022/01/03 02:01:10;;;;;;;;;;;8.80;99.90;;;;;;5094933;28;19908;-73
2022/01/03 02:03:38;;;;;;;;;;;8.90;99.90;;;;;;5094359;28;20352;-73
2022/01/03 02:06:22;;;;;;;;;;;8.80;99.90;;;;;;5094413;28;19908;-73
2022/01/03 02:08:54;;;;;;;;;;;8.90;99.90;;;;;;5094625;28;19966;-73
2022/01/03 02:11:20;;;;;;;;;;;8.90;99.90;;;;;;5094543;28;20331;-71
2022/01/03 02:13:46;;;;;;;;;;;8.70;99.90;;;;;;5094105;28;20269;-72
2022/01/03 02:16:12;;;;;;;;;;;8.80;99.90;;;;;;5094249;28;19916;-73
2022/01/03 02:18:38;;;;;;;;;;;8.90;99.90;;;;;;5093990;28;20331;-72
2022/01/03 02:21:03;;;;;;;;;;;9.00;99.90;;;;;;5094391;28;19922;-73
2022/01/03 02:23:29;;;;;;;;;;;9.10;99.90;;;;;;5094051;28;20291;-73
2022/01/03 02:25:55;;;;;;;;;;;9.10;99.90;;;;;;5094282;28;19912;-73
2022/01/03 02:28:22;;;;;;;;;;;9.00;99.90;;;;;;5094298;28;19920;-73
2022/01/03 02:30:51;;;;;;;;;;;8.90;99.90;;;;;;5093980;28;19908;-73
2022/01/03 02:33:17;;;;;;;;;;;8.70;99.90;;;;;;5093608;28;20007;-73
2022/01/03 02:35:43;;;;;;;;;;;8.80;99.90;;;;;;5093909;28;20381;-73
2022/01/03 02:38:09;;;;;;;;;;;8.80;99.90;;;;;;5094334;28;20384;-73
2022/01/03 02:40:35;;;;;;;;;;;9.10;99.90;;;;;;5093896;28;19962;-73
2022/01/03 02:43:01;;;;;;;;;;;9.10;99.90;;;;;;5075609;28;19912;-73
2022/01/03 02:45:26;;;;;;;;;;;9.10;99.90;;;;;;5093743;28;20348;-73
2022/01/03 02:47:56;;;;;;;;;;;9.20;99.90;;;;;;5093364;28;19912;-73
2022/01/03 02:50:22;;;;;;;;;;;9.10;99.90;;;;;;5093490;28;20379;-73
2022/01/03 02:52:48;;;;;;;;;;;8.90;99.90;;;;;;5093790;28;19915;-73
2022/01/03 02:55:14;;;;;;;;;;;8.80;99.90;;;;;;5092749;28;19908;-73
2022/01/03 02:57:41;;;;;;;;;;;8.80;99.90;;;;;;5093594;28;19908;-73
2022/01/03 03:00:08;;;;;;;;;;;8.90;99.90;;;;;;5093661;28;19953;-73
2022/01/03 03:02:34;;;;;;;;;;;8.90;99.90;;;;;;5093909;28;19909;-73
2022/01/03 03:05:02;;;;;;;;;;;9.00;99.90;;;;;;5093154;28;19915;-73
2022/01/03 03:07:29;;;;;;;;;;;9.20;99.90;;;;;;5093307;28;20444;-73
2022/01/03 03:09:54;;;;;;;;;;;9.00;99.90;;;;;;5093544;28;19962;-73
2022/01/03 03:12:20;;;;;;;;;;;8.90;99.90;;;;;;5093207;28;19912;-73
2022/01/03 03:14:46;;;;;;;;;;;8.90;99.90;;;;;;5074576;28;19961;-73
2022/01/03 03:17:12;;;;;;;;;;;8.90;99.90;;;;;;5092955;28;19912;-73
2022/01/03 03:20:03;;;;;;;;;;;9.30;99.90;;;;;;5092932;28;19920;-73
2022/01/03 03:22:30;;;;;;;;;;;9.00;99.90;;;;;;5086931;28;19920;-71
2022/01/03 03:25:01;;;;;;;;;;;9.20;99.90;;;;;;5074586;28;19919;-72
2022/01/03 03:27:27;;;;;;;;;;;9.20;99.90;;;;;;5092814;28;19948;-73
2022/01/03 03:29:52;;;;;;;;;;;9.10;99.90;;;;;;5093160;28;19979;-73
2022/01/03 03:32:18;;;;;;;;;;;9.30;99.90;;;;;;5092868;28;20345;-73
2022/01/03 03:34:45;;;;;;;;;;;9.50;99.90;;;;;;5092823;28;19954;-73
2022/01/03 03:37:10;;;;;;;;;;;9.20;99.90;;;;;;5092889;28;19915;-73
2022/01/03 03:39:36;;;;;;;;;;;9.30;99.90;;;;;;5092933;28;19912;-73
2022/01/03 03:42:06;;;;;;;;;;;9.20;99.90;;;;;;5093139;28;20355;-73
2022/01/03 03:44:32;;;;;;;;;;;9.20;99.90;;;;;;5092466;28;20341;-72
2022/01/03 03:46:58;;;;;;;;;;;9.20;99.90;;;;;;5092603;28;19959;-71
2022/01/03 03:49:23;;;;;;;;;;;9.30;99.90;;;;;;5091971;28;19920;-73
2022/01/03 03:51:49;;;;;;;;;;;9.20;99.90;;;;;;5092703;28;19908;-73
2022/01/03 03:54:14;;;;;;;;;;;9.40;99.90;;;;;;5092032;28;19916;-73
2022/01/03 03:56:40;;;;;;;;;;;9.20;99.90;;;;;;5092366;28;19908;-72
2022/01/03 03:59:05;;;;;;;;;;;9.10;99.90;;;;;;5092533;28;19908;-73
2022/01/03 04:01:31;;;;;;;;;;;9.10;99.90;;;;;;5092350;28;20194;-73
2022/01/03 04:03:56;;;;;;;;;;;9.00;99.90;;;;;;5073425;28;19912;-73
2022/01/03 04:06:22;;;;;;;;;;;9.00;99.90;;;;;;5073759;28;19908;-73
2022/01/03 04:08:47;;;;;;;;;;;9.40;99.90;;;;;;5091416;28;19912;-73
2022/01/03 04:11:13;;;;;;;;;;;9.10;99.90;;;;;;5091915;28;19940;-73
2022/01/03 04:13:39;;;;;;;;;;;9.10;99.90;;;;;;5091449;28;19915;-73
2022/01/03 04:16:05;;;;;;;;;;;9.00;99.90;;;;;;5085316;28;19973;-72
2022/01/03 04:18:31;;;;;;;;;;;9.00;99.90;;;;;;5091387;28;19953;-73
2022/01/03 04:20:56;;;;;;;;;;;9.20;99.90;;;;;;5091916;28;19912;-73
2022/01/03 04:23:22;;;;;;;;;;;9.00;99.90;;;;;;5091344;28;19989;-73
2022/01/03 04:25:47;;;;;;;;;;;8.90;99.90;;;;;;5091747;28;19987;-73
2022/01/03 04:28:13;;;;;;;;;;;8.80;99.90;;;;;;5073440;28;20330;-72
2022/01/03 04:30:38;;;;;;;;;;;8.50;99.90;;;;;;5092077;28;20344;-73
2022/01/03 04:33:04;;;;;;;;;;;8.50;99.90;;;;;;5091293;28;19960;-73
2022/01/03 04:35:29;;;;;;;;;;;8.70;99.90;;;;;;5091341;28;19908;-73
2022/01/03 04:37:55;;;;;;;;;;;8.60;99.90;;;;;;5091554;28;19935;-71
2022/01/03 04:40:20;;;;;;;;;;;8.60;99.90;;;;;;5091199;28;19908;-73
2022/01/03 04:42:46;;;;;;;;;;;8.60;99.90;;;;;;5091424;28;20347;-73
2022/01/03 04:45:11;;;;;;;;;;;8.60;99.90;;;;;;5090979;28;19908;-73
2022/01/03 04:47:37;;;;;;;;;;;8.40;99.90;;;;;;5090713;28;19908;-73
2022/01/03 04:50:03;;;;;;;;;;;8.20;99.90;;;;;;5088365;28;20357;-73
2022/01/03 04:52:28;;;;;;;;;;;8.50;99.90;;;;;;5091470;28;19954;-73
2022/01/03 04:54:54;;;;;;;;;;;8.50;99.90;;;;;;5090729;28;19919;-73
2022/01/03 04:57:19;;;;;;;;;;;8.30;99.90;;;;;;5091514;28;19908;-71
2022/01/03 04:59:45;;;;;;;;;;;8.30;99.90;;;;;;5091293;28;19923;-73
2022/01/03 05:02:11;;;;;;;;;;;8.50;99.90;;;;;;5091415;28;20293;-73
2022/01/03 05:04:37;;;;;;;;;;;8.70;99.90;;;;;;5090804;28;19915;-73
2022/01/03 05:07:02;;;;;;;;;;;8.60;99.90;;;;;;5091498;28;19908;-73
2022/01/03 05:09:28;;;;;;;;;;;8.70;99.90;;;;;;5091109;28;19919;-73
2022/01/03 05:11:55;;;;;;;;;;;8.70;99.90;;;;;;5091439;28;20246;-73
2022/01/03 05:14:20;;;;;;;;;;;8.60;99.90;;;;;;5090532;28;19916;-73
2022/01/03 05:16:46;;;;;;;;;;;8.70;99.90;;;;;;5091092;28;19909;-72
2022/01/03 05:19:11;;;;;;;;;;;8.60;99.90;;;;;;5072351;28;19952;-73
2022/01/03 05:21:37;;;;;;;;;;;8.50;99.90;;;;;;5091117;28;19908;-73
2022/01/03 05:24:02;;;;;;;;;;;8.40;99.90;;;;;;5090607;28;19908;-73
2022/01/03 05:26:28;;;;;;;;;;;8.30;99.90;;;;;;5091592;28;20262;-73
2022/01/03 05:28:53;;;;;;;;;;;8.20;99.90;;;;;;5091110;28;19938;-73
2022/01/03 05:31:19;;;;;;;;;;;8.10;99.90;;;;;;5090936;28;19908;-73
2022/01/03 05:33:44;;;;;;;;;;;8.00;99.90;;;;;;5090575;28;19912;-72
2022/01/03 05:36:10;;;;;;;;;;;8.10;99.90;;;;;;5091768;28;19934;-73
2022/01/03 05:38:35;;;;;;;;;;;8.00;99.90;;;;;;5091334;28;20354;-73
2022/01/03 05:41:01;;;;;;;;;;;7.90;99.90;;;;;;5091285;28;19908;-73
2022/01/03 05:43:26;;;;;;;;;;;7.90;99.90;;;;;;5090902;28;20352;-73
2022/01/03 05:45:51;;;;;;;;;;;7.80;99.90;;;;;;5072995;28;19919;-73
2022/01/03 05:48:17;;;;;;;;;;;7.70;99.90;;;;;;5090630;28;19960;-73
2022/01/03 05:50:42;;;;;;;;;;;7.60;99.90;;;;;;5090855;28;19908;-72
2022/01/03 05:53:08;;;;;;;;;;;7.80;99.90;;;;;;5090677;28;20274;-73
2022/01/03 05:55:33;;;;;;;;;;;7.80;99.90;;;;;;5091452;28;19909;-73
2022/01/03 05:57:59;;;;;;;;;;;7.90;99.90;;;;;;5091351;28;20331;-72
2022/01/03 06:00:26;;;;;;;;;;;8.00;99.90;;;;;;5091698;28;19918;-73
2022/01/03 06:02:55;;;;;;;;;;;8.10;99.90;;;;;;5073142;28;19912;-71
2022/01/03 06:05:39;;;;;;;;;;;8.20;99.90;;;;;;5091453;28;19908;-73
2022/01/03 06:08:06;;;;;;;;;;;8.20;99.90;;;;;;5073097;28;19927;-73
2022/01/03 06:10:31;;;;;;;;;;;8.20;99.90;;;;;;5091436;28;19908;-72
2022/01/03 06:12:57;;;;;;;;;;;8.30;99.90;;;;;;5090723;28;20258;-73
2022/01/03 06:15:24;;;;;;;;;;;8.20;99.90;;;;;;5090113;28;19962;-73
2022/01/03 06:17:49;;;;;;;;;;;8.40;99.90;;;;;;5084870;28;19908;-72
2022/01/03 06:20:15;;;;;;;;;;;8.30;99.90;;;;;;5091243;28;20098;-73
2022/01/03 06:22:41;;;;;;;;;;;8.20;99.90;;;;;;5094195;28;19908;-73
2022/01/03 06:25:07;;;;;;;;;;;8.10;99.90;;;;;;5091802;28;19916;-73
2022/01/03 06:27:33;;;;;;;;;;;8.20;99.90;;;;;;5091144;28;20395;-71
2022/01/03 06:29:59;;;;;;;;;;;8.20;99.90;;;;;;5078244;28;19943;-73
2022/01/03 06:32:24;;;;;;;;;;;8.20;99.90;;;;;;5077540;28;19912;-73
2022/01/03 06:34:52;;;;;;;;;;;8.20;99.90;;;;;;5093621;28;20022;-72
2022/01/03 06:37:18;;;;;;;;;;;8.20;99.90;;;;;;5093707;28;19998;-73
2022/01/03 06:39:44;;;;;;;;;;;8.30;99.90;;;;;;5094308;28;20325;-73
2022/01/03 06:42:09;;;;;;;;;;;8.30;99.90;;;;;;5094004;28;19943;-73
2022/01/03 06:44:35;;;;;;;;;;;8.30;99.90;;;;;;5093158;28;19974;-73
2022/01/03 06:47:00;;;;;;;;;;;8.20;99.90;;;;;;5093469;28;19908;-72
2022/01/03 06:49:25;;;;;;;;;;;8.20;99.90;;;;;;5092987;28;19912;-73
2022/01/03 06:51:51;;;;;;;;;;;8.30;99.90;;;;;;5093525;28;20248;-73
2022/01/03 06:54:16;;;;;;;;;;;8.20;99.90;;;;;;5093308;28;19922;-73
2022/01/03 06:56:42;;;;;;;;;;;8.00;99.90;;;;;;5094048;28;19908;-73
2022/01/03 06:59:08;;;;;;;;;;;8.10;99.90;;;;;;5093275;28;19911;-73
2022/01/03 07:01:33;;;;;;;;;;;8.30;99.90;;;;;;5104026;28;19930;-72
2022/01/03 07:03:59;;;;;;;;;;;8.50;99.90;;;;;;5077447;28;19930;-72
2022/01/03 07:06:25;;;;;;;;;;;8.50;99.90;;;;;;5093242;28;19919;-71
2022/01/03 07:08:50;;;;;;;;;;;8.50;99.90;;;;;;5089715;28;20407;-73
2022/01/03 07:11:16;;;;;;;;;;;8.40;99.90;;;;;;5094008;28;19908;-72
2022/01/03 07:13:46;;;;;;;;;;;8.40;99.90;;;;;;5086408;28;19908;-73
2022/01/03 07:18:56;;;;;;;;;;;8.50;99.90;;;;;;5093204;28;20434;-72
2022/01/03 07:21:27;;;;;;;;;;;8.40;99.90;;;;;;5094004;28;19909;-72
2022/01/03 07:23:53;;;;;;;;;;;8.40;99.90;;;;;;5095060;28;20246;-72
2022/01/03 07:26:18;;;;;;;;;;;8.30;99.90;;;;;;5094831;28;19916;-72
2022/01/03 07:28:44;;;;;;;;;;;8.40;99.90;;;;;;5092203;28;20356;-72
2022/01/03 07:31:09;;;;;;;;;;;8.40;99.90;;;;;;5091003;28;20349;-73
2022/01/03 07:33:35;;;;;;;;;;;8.40;99.90;;;;;;5080898;28;19909;-72
2022/01/03 07:36:00;;;;;;;;;;;8.50;99.90;;;;;;5083594;28;20273;-72
2022/01/03 07:38:27;;;;;;;;;;;8.40;99.90;;;;;;5090310;28;19931;-72
2022/01/03 07:40:53;;;;;;;;;;;8.50;99.90;;;;;;5089099;28;19908;-72
2022/01/03 07:43:18;;;;;;;;;;;8.40;99.90;;;;;;5091578;28;19908;-72
2022/01/03 07:45:44;;;;;;;;;;;8.40;99.90;;;;;;5092787;28;19908;-72
2022/01/03 07:48:09;;;;;;;;;;;8.40;99.90;;;;;;5088500;28;19913;-72
2022/01/03 07:50:35;;;;;;;;;;;8.50;99.90;;;;;;5092829;28;19912;-71
2022/01/03 07:53:01;;;;;;;;;;;8.70;99.90;;;;;;5093465;28;19908;-72
2022/01/03 07:55:26;;;;;;;;;;;8.80;99.90;;;;;;5086202;28;19908;-72
2022/01/03 07:57:53;;;;;;;;;;;8.70;99.90;;;;;;5092057;28;19956;-72
2022/01/03 08:00:18;;;;;;;;;;;8.80;99.90;;;;;;5091168;28;19997;-73
2022/01/03 08:02:44;;;;;;;;;;;8.90;99.90;;;;;;5092441;28;19954;-72
2022/01/03 08:05:12;;;;;;;;;;;8.80;99.90;;;;;;5092236;28;19939;-72
2022/01/03 08:07:38;;;;;;;;;;;8.80;99.90;;;;;;5092055;28;19908;-72
2022/01/03 08:10:04;;;;;;;;;;;8.80;99.90;;;;;;5073941;28;20383;-72
2022/01/03 08:12:30;;;;;;;;;;;8.70;99.90;;;;;;5082879;28;19908;-73
2022/01/03 08:14:55;;;;;;;;;;;8.80;99.90;;;;;;5076964;28;19916;-72
2022/01/03 08:17:21;;;;;;;;;;;8.80;99.90;;;;;;5086727;28;20007;-73
2022/01/03 08:19:46;;;;;;;;;;;8.80;99.90;;;;;;5083793;28;19912;-73
2022/01/03 08:22:12;;;;;;;;;;;8.80;99.90;;;;;;5092544;28;19954;-72
2022/01/03 08:24:37;;;;;;;;;;;8.90;99.90;;;;;;5087705;28;19951;-72
2022/01/03 08:27:03;;;;;;;;;;;8.80;99.90;;;;;;5097416;28;20008;-74
2022/01/03 08:29:28;;;;;;;;;;;8.80;99.90;;;;;;5098060;28;19964;-74
2022/01/03 08:31:54;;;;;;;;;;;8.90;99.90;;;;;;5102969;28;19908;-72
2022/01/03 08:34:20;;;;;;;;;;;9.00;99.90;;;;;;5093396;28;19919;-72
2022/01/03 08:36:45;;;;;;;;;;;8.90;99.90;;;;;;5092092;28;20462;-72
2022/01/03 08:39:11;;;;;;;;;;;9.00;99.90;;;;;;5088358;28;19912;-74
2022/01/03 08:41:37;;;;;;;;;;;8.90;99.90;;;;;;5085692;28;19909;-72
2022/01/03 08:44:02;;;;;;;;;;;8.90;99.90;;;;;;5087940;28;20394;-73
2022/01/03 08:46:28;;;;;;;;;;;8.90;99.90;;;;;;5084692;28;20640;-72
2022/01/03 08:48:54;;;;;;;;;;;9.00;99.90;;;;;;5067427;28;19912;-72
2022/01/03 08:51:20;;;;;;;;;;;9.10;99.90;;;;;;5086386;28;19947;-72
2022/01/03 08:53:46;;;;;;;;;;;9.10;99.90;;;;;;5089370;28;19975;-72
2022/01/03 08:56:11;;;;;;;;;;;9.10;99.90;;;;;;5084824;28;20038;-73
2022/01/03 08:58:37;;;;;;;;;;;9.20;99.90;;;;;;5075522;28;19999;-72
2022/01/03 09:01:03;;;;;;;;;;;9.20;99.90;;;;;;5075728;28;19924;-72
2022/01/03 09:03:28;;;;;;;;;;;9.30;99.90;;;;;;5084195;28;20308;-72
2022/01/03 09:05:54;;;;;;;;;;;9.30;99.90;;;;;;5089545;28;19954;-74
2022/01/03 09:08:22;;;;;;;;;;;9.30;99.90;;;;;;5083949;28;19970;-73
2022/01/03 09:10:48;;;;;;;;;;;9.30;99.90;;;;;;5087944;28;19999;-72
2022/01/03 09:13:13;;;;;;;;;;;9.40;99.90;;;;;;5083258;28;20238;-72
2022/01/03 09:15:44;;;;;;;;;;;9.40;99.90;;;;;;5079017;28;20035;-72
2022/01/03 09:18:13;;;;;;;;;;;9.50;99.90;;;;;;5083681;28;19909;-72
2022/01/03 09:20:38;;;;;;;;;;;9.50;99.90;;;;;;5085461;28;19960;-72
2022/01/03 09:23:18;;;;;;;;;;;9.50;99.90;;;;;;5081126;28;20323;-73
2022/01/03 09:31:12;;;;;;;;;;;9.60;99.90;;;;;;5084935;28;19966;-73
2022/01/03 09:33:38;;;;;;;;;;;9.60;99.90;;;;;;5091005;28;20380;-72
2022/01/03 09:36:03;;;;;;;;;;;9.60;99.90;;;;;;5091188;28;19915;-72
2022/01/03 09:38:29;;;;;;;;;;;9.60;99.90;;;;;;5091716;28;19916;-72
2022/01/03 09:40:57;;;;;;;;;;;9.60;99.90;;;;;;5072727;28;19912;-73
2022/01/03 09:43:23;;;;;;;;;;;9.60;99.90;;;;;;5090919;28;19994;-73
2022/01/03 09:45:49;;;;;;;;;;;9.60;99.90;;;;;;5091255;28;19948;-73
2022/01/03 09:48:15;;;;;;;;;;;9.60;99.90;;;;;;5090677;28;20318;-72
2022/01/03 09:50:42;;;;;;;;;;;9.60;99.90;;;;;;5090511;28;19931;-72
2022/01/03 09:53:08;;;;;;;;;;;9.60;99.90;;;;;;5090412;28;20054;-72
2022/01/03 09:55:36;;;;;;;;;;;9.70;99.90;;;;;;5090788;28;19908;-72
2022/01/03 09:58:01;;;;;;;;;;;9.60;99.90;;;;;;5090822;28;19999;-72
2022/01/03 10:00:27;;;;;;;;;;;9.70;99.90;;;;;;5090932;28;20404;-72
2022/01/03 10:02:53;;;;;;;;;;;9.70;99.90;;;;;;5090800;28;19935;-72
2022/01/03 10:05:19;;;;;;;;;;;9.70;99.90;;;;;;5093091;28;19934;-72
2022/01/03 10:07:45;;;;;;;;;;;9.70;99.90;;;;;;5094890;28;19908;-72
2022/01/03 10:10:11;;;;;;;;;;;9.70;99.90;;;;;;5076401;28;19908;-72
2022/01/03 10:12:37;;;;;;;;;;;9.70;99.90;;;;;;5095017;28;19908;-72
2022/01/03 10:15:05;;;;;;;;;;;9.70;99.90;;;;;;5075986;28;20361;-72
2022/01/03 10:17:37;;;;;;;;;;;9.70;99.90;;;;;;5094673;28;19954;-73
2022/01/03 10:20:04;;;;;;;;;;;9.70;99.90;;;;;;5089659;28;19908;-72
2022/01/03 10:22:31;;;;;;;;;;;9.70;99.90;;;;;;5090147;28;20353;-74
2022/01/03 10:24:59;;;;;;;;;;;9.70;99.90;;;;;;5086547;28;19920;-72
2022/01/03 10:27:42;;;;;;;;;;;9.80;99.90;;;;;;5092017;28;19912;-73
2022/01/03 10:30:08;;;;;;;;;;;9.80;99.90;;;;;;5085124;28;20011;-73
2022/01/03 10:32:35;;;;;;;;;;;9.80;99.90;;;;;;5093633;28;20435;-72
2022/01/03 10:35:13;;;;;;;;;;;9.80;99.90;;;;;;5093979;28;19953;-73
2022/01/03 10:37:38;;;;;;;;;;;9.80;99.90;;;;;;5094351;28;19908;-73
2022/01/03 10:40:17;;;;;;;;;;;9.80;99.90;;;;;;5092550;28;19908;-72
2022/01/03 10:42:43;;;;;;;;;;;9.80;99.90;;;;;;5094284;28;19908;-75
2022/01/03 10:45:09;;;;;;;;;;;9.80;99.90;;;;;;5093815;28;19912;-72
2022/01/03 10:47:34;;;;;;;;;;;9.80;99.90;;;;;;5087384;28;19912;-73
2022/01/03 10:50:19;;;;;;;;;;;9.80;99.90;;;;;;5090914;28;19912;-72
2022/01/03 10:52:46;;;;;;;;;;;9.80;99.90;;;;;;5094415;28;19912;-72
2022/01/03 10:55:20;;;;;;;;;;;9.80;99.90;;;;;;5093829;28;20322;-72
2022/01/03 10:57:56;;;;;;;;;;;9.90;99.90;;;;;;5076528;28;19999;-72
2022/01/03 11:00:22;;;;;;;;;;;9.90;99.90;;;;;;5093975;28;19908;-72
2022/01/03 11:03:09;;;;;;;;;;;10.00;99.90;;;;;;5086841;28;19922;-72
2022/01/03 11:05:38;;;;;;;;;;;10.10;99.90;;;;;;5090759;28;20310;-72
2022/01/03 11:10:45;;;;;;;;;;;10.20;99.90;;;;;;5093942;28;19999;-72
2022/01/03 11:13:15;;;;;;;;;;;10.30;99.90;;;;;;5093683;28;20303;-72
2022/01/03 11:15:41;;;;;;;;;;;10.30;99.90;;;;;;5093124;28;19916;-73
2022/01/03 11:18:15;;;;;;;;;;;10.30;99.90;;;;;;5088955;28;19908;-72
2022/01/03 11:20:41;;;;;;;;;;;10.20;99.90;;;;;;5082296;28;19912;-74
2022/01/03 11:23:07;;;;;;;;;;;10.20;99.90;;;;;;5087889;28;19962;-75
2022/01/03 11:25:34;;;;;;;;;;;10.20;99.90;;;;;;5086443;28;19915;-73
2022/01/03 11:28:00;;;;;;;;;;;10.20;99.90;;;;;;5089648;28;19909;-73
2022/01/03 11:30:26;;;;;;;;;;;10.20;99.90;;;;;;5086879;28;19918;-73
2022/01/03 11:32:52;;;;;;;;;;;10.20;99.90;;;;;;5088581;28;19909;-72
2022/01/03 11:35:18;;;;;;;;;;;10.30;99.90;;;;;;5091274;28;19930;-73
2022/01/03 11:37:47;;;;;;;;;;;10.30;99.90;;;;;;5093114;28;19908;-72
2022/01/03 11:40:14;;;;;;;;;;;10.20;99.90;;;;;;5087622;28;19908;-72
2022/01/03 11:42:40;;;;;;;;;;;10.20;99.90;;;;;;5086547;28;19931;-74
2022/01/03 11:45:06;;;;;;;;;;;10.30;99.90;;;;;;5071242;28;19998;-74
2022/01/03 11:47:31;;;;;;;;;;;10.20;99.90;;;;;;5083505;28;19924;-72
2022/01/03 11:49:57;;;;;;;;;;;10.20;99.90;;;;;;5090044;28;19912;-73
2022/01/03 11:52:23;;;;;;;;;;;10.30;99.90;;;;;;5090565;28;20300;-73
2022/01/03 11:54:52;;;;;;;;;;;10.30;99.90;;;;;;5086224;28;19927;-73
2022/01/03 11:57:27;;;;;;;;;;;10.30;99.90;;;;;;5085827;28;20002;-75
2022/01/03 12:05:51;;;;;;;;;;;10.30;99.90;;;;;;5088771;28;19962;-73
2022/01/03 12:08:29;;;;;;;;;;;10.30;99.90;;;;;;5079342;28;19912;-73
2022/01/03 12:10:55;;;;;;;;;;;10.30;99.90;;;;;;5092366;28;19908;-74
2022/01/03 12:13:40;;;;;;;;;;;10.30;99.90;;;;;;5091691;28;19916;-74
2022/01/03 12:16:06;;;;;;;;;;;10.30;99.90;;;;;;5091801;28;20412;-73
2022/01/03 12:18:32;;;;;;;;;;;10.30;99.90;;;;;;5084968;28;20287;-73
2022/01/03 12:20:57;;;;;;;;;;;10.30;99.90;;;;;;5087728;28;19908;-73
2022/01/03 12:23:36;;;;;;;;;;;10.40;99.90;;;;;;5083322;28;20372;-73
2022/01/03 12:26:17;;;;;;;;;;;10.40;99.90;;;;;;5087337;28;19912;-73
2022/01/03 12:29:01;;;;;;;;;;;10.40;99.90;;;;;;5084031;28;19925;-73
2022/01/03 12:31:26;;;;;;;;;;;10.40;99.90;;;;;;5084728;28;19973;-72
2022/01/03 12:34:11;;;;;;;;;;;10.40;99.90;;;;;;5091108;28;19908;-72
2022/01/03 12:36:36;;;;;;;;;;;10.40;99.90;;;;;;5091737;28;19951;-72
2022/01/03 12:39:06;;;;;;;;;;;10.30;99.90;;;;;;5092517;28;20323;-72
2022/01/03 12:41:43;;;;;;;;;;;10.30;99.90;;;;;;5091365;28;19908;-72
2022/01/03 12:44:09;;;;;;;;;;;10.20;99.90;;;;;;5091330;28;20360;-72
2022/01/03 12:46:34;;;;;;;;;;;10.10;99.90;;;;;;5072215;28;20318;-72
2022/01/03 12:49:20;;;;;;;;;;;10.10;99.90;;;;;;5087925;28;19912;-72
2022/01/03 12:51:45;;;;;;;;;;;10.10;99.90;;;;;;5078715;28;19919;-74
2022/01/03 12:54:11;;;;;;;;;;;10.20;99.90;;;;;;5089483;28;19908;-72
2022/01/03 12:56:37;;;;;;;;;;;10.20;99.90;;;;;;5089654;28;19916;-72
2022/01/03 12:59:09;;;;;;;;;;;10.20;99.90;;;;;;5085457;28;19915;-72
2022/01/03 13:01:35;;;;;;;;;;;10.20;99.90;;;;;;5078452;28;20104;-73
2022/01/03 13:04:01;;;;;;;;;;;10.30;99.90;;;;;;5091363;28;19910;-72
2022/01/03 13:06:28;;;;;;;;;;;10.30;99.90;;;;;;5074485;28;19950;-72
2022/01/03 13:08:54;;;;;;;;;;;10.30;99.90;;;;;;5092948;28;19912;-72
2022/01/03 13:11:27;;;;;;;;;;;10.40;99.90;;;;;;5090733;28;19912;-72
2022/01/03 13:13:57;;;;;;;;;;;10.40;99.90;;;;;;5085049;28;19915;-72
2022/01/03 13:16:22;;;;;;;;;;;10.40;99.90;;;;;;5083414;28;20436;-73
2022/01/03 13:18:58;;;;;;;;;;;10.40;99.90;;;;;;5073160;28;19947;-73
2022/01/03 13:21:28;;;;;;;;;;;10.40;99.90;;;;;;5087346;28;20431;-73
2022/01/03 13:23:54;;;;;;;;;;;10.40;99.90;;;;;;5090540;28;19915;-73
2022/01/03 13:26:20;;;;;;;;;;;10.40;99.90;;;;;;5091337;28;19912;-72
2022/01/03 13:28:46;;;;;;;;;;;10.30;99.90;;;;;;5084027;28;19916;-73
2022/01/03 13:31:11;;;;;;;;;;;10.30;99.90;;;;;;5087533;28;19923;-73
2022/01/03 13:33:37;;;;;;;;;;;10.30;99.90;;;;;;5090029;28;19908;-73
2022/01/03 13:36:03;;;;;;;;;;;10.30;99.90;;;;;;5091102;28;19904;-73
2022/01/03 13:38:29;;;;;;;;;;;10.20;99.90;;;;;;5090939;28;20320;-73
2022/01/03 13:41:08;;;;;;;;;;;10.20;99.90;;;;;;5094568;28;19915;-74
2022/01/03 13:43:39;;;;;;;;;;;10.20;99.90;;;;;;5095035;28;20321;-74
2022/01/03 13:51:16;;;;;;;;;;;10.20;99.90;;;;;;5091307;28;19914;-74
2022/01/03 13:53:52;;;;;;;;;;;10.30;99.90;;;;;;5093390;28;20279;-73
2022/01/03 13:56:18;;;;;;;;;;;10.40;99.90;;;;;;5084758;28;20359;-74
2022/01/03 13:58:45;;;;;;;;;;;10.40;99.90;;;;;;5088939;28;19915;-74
2022/01/03 14:01:11;;;;;;;;;;;10.40;99.90;;;;;;5093277;28;19961;-73
2022/01/03 14:03:39;;;;;;;;;;;10.40;99.90;;;;;;5094258;28;20380;-74
2022/01/03 14:06:17;;;;;;;;;;;10.40;99.90;;;;;;5094480;28;19908;-74
2022/01/03 14:08:44;;;;;;;;;;;10.40;99.90;;;;;;5094744;28;19919;-74
2022/01/03 14:11:13;;;;;;;;;;;10.40;99.90;;;;;;5079099;28;19952;-75
2022/01/03 14:13:38;;;;;;;;;;;10.30;99.90;;;;;;5060474;28;19918;-74
2022/01/03 14:16:09;;;;;;;;;;;10.30;99.90;;;;;;5087715;28;19999;-75
2022/01/03 14:18:46;;;;;;;;;;;10.20;99.90;;;;;;5094060;28;19966;-74
2022/01/03 14:21:11;;;;;;;;;;;10.20;99.90;;;;;;5094283;28;19908;-74
2022/01/03 14:23:41;;;;;;;;;;;10.10;99.90;;;;;;5093487;28;20429;-73
2022/01/03 14:26:17;;;;;;;;;;;10.20;99.90;;;;;;5090319;28;20417;-74
2022/01/03 14:28:42;;;;;;;;;;;10.10;99.90;;;;;;5084342;28;19923;-74
2022/01/03 14:31:11;;;;;;;;;;;10.20;99.90;;;;;;5092728;28;19912;-74
2022/01/03 14:33:38;;;;;;;;;;;10.20;99.90;;;;;;5093933;28;19994;-74
2022/01/03 14:36:15;;;;;;;;;;;10.20;99.90;;;;;;5091389;28;20253;-74
2022/01/03 14:38:41;;;;;;;;;;;10.20;99.90;;;;;;5094407;28;19977;-74
2022/01/03 14:41:19;;;;;;;;;;;10.20;99.90;;;;;;5094076;28;19915;-74
2022/01/03 14:43:54;;;;;;;;;;;10.20;99.90;;;;;;5075234;28;19908;-74
2022/01/03 14:46:27;;;;;;;;;;;10.20;99.90;;;;;;5089869;28;20003;-74
2022/01/03 14:48:53;;;;;;;;;;;10.10;99.90;;;;;;5091796;28;19912;-74
2022/01/03 14:51:18;;;;;;;;;;;10.00;99.90;;;;;;5093123;28;20054;-74
2022/01/03 14:53:44;;;;;;;;;;;9.90;99.90;;;;;;5093571;28;20372;-74